La Place, LA

2:56 AM CDT on May 25, 2017 (GMT -0500)
Old LaPlace | | Change Station
Active Advisory: Flood Warning

Elev 14 ft 30.07 °N, 90.49 °W | Updated 2 minutes ago

Clear
Clear
59.4 °F
Feels Like 59.4 °F
N
0.0
Wind Variable Wind from North
Gusts 0.0 mph

Today
High -- | Low -- °F
--% Chance of Precip.
Yesterday
High -- | Low -- °F
Precip. -- in
Pressure 29.81 in
Visibility 10.0 miles
Clouds Few 5000 ft
Dew Point 55 °F
Humidity 84%
Rainfall 0.00 in
Snow Depth Not available.
6:03 AM 7:54 PM
Waning Crescent, 0% visible
METAR KMSY 250653Z 26004KT 10SM FEW050 16/13 A2980 RMK AO2 SLP093 T01610128
Pressure 29.81 in
Visibility 10.0 miles
Clouds Few 5000 ft
Dew Point 55 °F
Humidity 84%
Rainfall 0.00 in
Snow Depth Not available.
6:03 AM 7:54 PM
Waning Crescent, 0% visible
METAR KMSY 250653Z 26004KT 10SM FEW050 16/13 A2980 RMK AO2 SLP093 T01610128

Get Your Daily Forecast Email!

Thanks for signing up!

Be on the lookout for a verification email in your inbox.

You'll start receiving severe weather alerts in your inbox..

×

10-Day Weather Forecast

Almanac

Astronomy

May. 25, 2017 Rise Set
Actual Time
Civil Twilight
Nautical Twilight
Astronomical Twilight
Moon
Length of Visible Light
Length of Day
Tomorrow will be .
, % of the Moon is Illuminated

Today's Extremes

State Highs State Lows

Community

WunderPhotos

Category 6

Welcome to Category 6. This is the collective home for Weather Underground's featured writeups by Dr. Jeff Masters (right), Bob Henson (left), Chris Burt, and other regular contributors.

Nearby

Air Quality

  Air Quality AQ Index Pollutant
Not available.

Snow Depth

Station Depth Elevation

Earthquake Activity

City Distance Mag. Time & Date
Minimum magnitude displayed is 2.5.

Coastal Water Temperatures

Place Temperature

Stations

Nearby Weather Stations

Station Location Temp. Windchill Dew Point Humidity Wind Precip. Elev Updated Type
                   

Watches & Warnings

Flood Warning
Issued: 9:16 PM CDT May. 24, 2017 – National Weather Service

The Flood Warning continues for
the Mississippi River at Reserve.
* Until Sunday June 11.
* At 8:00 PM Wednesday the stage was 22.7 feet.
* Minor flooding is occurring and minor flooding is forecast.
* Flood stage is 22.0 feet.
* Forecast... the river is expected to continue rising until cresting
at around 23.0 feet by Thursday June 1st. The river is expected to
fall below flood stage by Wednesday June 7th.
* Impact... at 22.0 feet... marine and Industrial interests along the
river, upstream barge operators, and facilities are impacted.
Navigation will become difficult for smaller river craft. Safety
precautions for river traffic are urged.


Lat... Lon 3009 9079 3001 9087 2999 9048 3007 9046